createdAt,value
2022-08-07T00:01:43.020Z,15.40
2022-08-07T00:06:29.563Z,10.50
2022-08-07T00:11:48.026Z,6.43
2022-08-07T00:17:00.010Z,9.60
2022-08-07T00:22:04.410Z,9.98
2022-08-07T00:27:09.223Z,6.93
2022-08-07T00:32:14.025Z,5.33
2022-08-07T00:37:17.933Z,7.75
2022-08-07T00:42:29.098Z,9.20
2022-08-07T00:48:07.687Z,4.57
2022-08-07T00:52:54.820Z,6.03
2022-08-07T00:57:57.516Z,4.38
2022-08-07T01:03:00.187Z,7.50
2022-08-07T01:08:03.650Z,5.20
2022-08-07T01:13:06.311Z,5.57
2022-08-07T01:18:10.588Z,5.25
2022-08-07T01:23:14.272Z,6.23
2022-08-07T01:28:17.446Z,5.22
2022-08-07T01:33:21.047Z,6.40
2022-08-07T01:38:25.801Z,6.00
2022-08-07T01:43:34.566Z,7.60
2022-08-07T01:48:46.641Z,5.82
2022-08-07T01:54:09.412Z,4.07
2022-08-07T01:59:21.302Z,6.97
2022-08-07T02:04:35.913Z,5.55
2022-08-07T02:09:52.773Z,5.53
2022-08-07T02:14:57.418Z,4.90
2022-08-07T02:20:07.570Z,7.40
2022-08-07T02:25:21.122Z,5.90
2022-08-07T02:30:43.841Z,4.67
2022-08-07T02:36:28.205Z,9.40
2022-08-07T02:41:10.688Z,4.80
2022-08-07T02:46:13.722Z,7.00
2022-08-07T02:51:42.717Z,5.10
2022-08-07T02:56:42.989Z,7.18
2022-08-07T03:01:52.132Z,8.98
2022-08-07T03:06:57.903Z,5.43
2022-08-07T03:12:06.735Z,7.05
2022-08-07T03:17:11.041Z,8.15
2022-08-07T03:22:18.785Z,6.87
2022-08-07T03:27:30.424Z,5.68
2022-08-07T03:32:40.819Z,6.43
2022-08-07T03:37:56.760Z,8.40
2022-08-07T03:43:00.648Z,7.93
2022-08-07T03:48:03.530Z,5.60
2022-08-07T03:53:06.922Z,4.57
2022-08-07T03:59:04.641Z,5.73
2022-08-07T04:03:49.978Z,5.50
2022-08-07T04:08:55.138Z,4.72
2022-08-07T04:14:10.927Z,7.67
2022-08-07T04:19:20.747Z,6.68
2022-08-07T04:24:39.138Z,7.00
2022-08-07T04:29:58.419Z,8.07
2022-08-07T04:35:07.307Z,5.80
2022-08-07T04:40:14.077Z,5.47
2022-08-07T04:45:22.413Z,5.25
2022-08-07T04:51:10.585Z,9.33
2022-08-07T04:58:11.707Z,9.40
2022-08-07T05:02:16.975Z,4.70
2022-08-07T05:07:48.599Z,5.13
2022-08-07T05:13:10.125Z,5.38
2022-08-07T05:18:35.625Z,4.18
2022-08-07T05:23:46.276Z,3.90
2022-08-07T05:28:51.742Z,4.13
2022-08-07T05:34:04.373Z,4.65
2022-08-07T05:40:04.875Z,4.78
2022-08-07T05:44:31.643Z,7.70
2022-08-07T05:49:43.805Z,4.10
2022-08-07T05:54:55.862Z,4.90
2022-08-07T06:00:01.680Z,4.13
2022-08-07T06:05:15.854Z,5.28
2022-08-07T06:10:18.595Z,3.72
2022-08-07T06:15:22.137Z,4.67
2022-08-07T06:20:50.903Z,3.90
2022-08-07T06:26:07.635Z,5.18
2022-08-07T06:31:10.155Z,5.80
2022-08-07T06:36:14.205Z,5.30
2022-08-07T06:42:02.179Z,4.60
2022-08-07T06:47:10.269Z,9.93
2022-08-07T06:52:16.927Z,6.13
2022-08-07T06:57:43.730Z,4.90
2022-08-07T07:02:57.594Z,5.95
2022-08-07T07:08:07.408Z,8.23
2022-08-07T07:13:16.923Z,5.67
2022-08-07T07:18:56.324Z,5.13
2022-08-07T07:24:09.307Z,6.75
2022-08-07T07:29:40.687Z,5.57
2022-08-07T07:34:41.511Z,4.68
2022-08-07T07:39:52.218Z,4.88
2022-08-07T07:44:58.842Z,5.20
2022-08-07T07:50:34.082Z,5.93
2022-08-07T07:55:24.848Z,6.93
2022-08-07T08:00:34.238Z,6.53
2022-08-07T08:05:50.771Z,6.43
2022-08-07T08:10:58.537Z,5.65
2022-08-07T08:16:02.527Z,6.07
2022-08-07T08:21:07.590Z,5.70
2022-08-07T08:26:32.021Z,6.43
2022-08-07T08:32:17.326Z,5.13
2022-08-07T08:37:09.962Z,6.23
2022-08-07T08:42:56.539Z,5.20
2022-08-07T08:48:28.291Z,6.33
2022-08-07T08:53:40.384Z,20.47
2022-08-07T08:59:24.775Z,7.18
2022-08-07T09:04:57.028Z,6.53
2022-08-07T09:10:21.781Z,5.40
2022-08-07T09:16:25.688Z,10.43
2022-08-07T09:22:23.219Z,7.23
2022-08-07T09:27:18.828Z,5.32
2022-08-07T09:32:26.336Z,6.25
2022-08-07T09:37:53.567Z,5.97
2022-08-07T09:44:03.580Z,6.95
2022-08-07T09:50:02.401Z,9.75
2022-08-07T09:54:42.874Z,5.50
2022-08-07T10:00:05.099Z,8.25
2022-08-07T10:06:09.016Z,7.32
2022-08-07T10:12:02.358Z,6.07
2022-08-07T10:17:19.375Z,6.47
2022-08-07T10:22:36.698Z,6.20
2022-08-07T10:28:26.279Z,7.45
2022-08-07T10:34:05.914Z,6.27
2022-08-07T10:39:12.839Z,6.45
2022-08-07T10:44:37.806Z,7.28
2022-08-07T10:50:06.233Z,7.07
2022-08-07T10:55:37.921Z,6.55
2022-08-07T11:01:12.393Z,9.50
2022-08-07T11:06:22.131Z,5.97
2022-08-07T11:11:39.335Z,7.60
2022-08-07T11:17:02.146Z,5.97
2022-08-07T11:22:26.703Z,5.03
2022-08-07T11:28:20.282Z,7.67
2022-08-07T11:33:53.750Z,6.43
2022-08-07T11:39:20.477Z,6.55
2022-08-07T11:44:52.501Z,7.03
2022-08-07T11:50:32.418Z,7.50
2022-08-07T11:56:09.494Z,7.05
2022-08-07T12:01:22.778Z,6.30
2022-08-07T12:06:39.523Z,9.77
2022-08-07T12:12:22.895Z,6.93
2022-08-07T12:17:39.751Z,6.97
2022-08-07T12:23:37.228Z,7.93
2022-08-07T12:29:13.650Z,9.60
2022-08-07T12:34:17.580Z,6.75
2022-08-07T12:39:44.282Z,7.93
2022-08-07T12:44:47.065Z,8.60
2022-08-07T12:50:34.295Z,5.53
2022-08-07T12:56:02.123Z,7.70
2022-08-07T13:01:15.354Z,7.37
2022-08-07T13:07:00.981Z,8.15
2022-08-07T13:12:36.362Z,7.82
2022-08-07T13:18:09.569Z,7.63
2022-08-07T13:24:02.052Z,7.82
2022-08-07T13:29:22.501Z,8.38
2022-08-07T13:34:44.663Z,6.73
2022-08-07T13:40:36.188Z,6.65
2022-08-07T13:46:11.860Z,7.45
2022-08-07T13:51:01.469Z,6.33
2022-08-07T13:56:08.146Z,8.83
2022-08-07T14:01:21.923Z,6.93
2022-08-07T14:06:32.858Z,8.35
2022-08-07T14:12:00.320Z,7.07
2022-08-07T14:17:13.035Z,8.60
2022-08-07T14:22:35.052Z,7.68
2022-08-07T14:28:12.173Z,8.87
2022-08-07T14:33:10.025Z,8.25
2022-08-07T14:38:26.578Z,7.88
2022-08-07T14:54:34.548Z,9.75
2022-08-07T15:00:05.190Z,9.65
2022-08-07T15:05:03.406Z,7.70
2022-08-07T15:10:10.929Z,8.65
2022-08-07T15:15:22.847Z,10.40
2022-08-07T15:25:57.154Z,6.07
2022-08-07T15:32:01.767Z,6.18
2022-08-07T15:37:02.420Z,5.50
2022-08-07T15:52:54.516Z,6.25
2022-08-07T15:58:05.460Z,7.73
2022-08-07T16:03:22.179Z,6.80
2022-08-07T16:08:49.633Z,6.43
2022-08-07T16:14:03.217Z,6.97
2022-08-07T16:19:42.120Z,9.10
2022-08-07T16:25:07.649Z,9.68
2022-08-07T16:30:31.566Z,6.20
2022-08-07T16:35:51.886Z,7.90
2022-08-07T16:41:41.647Z,7.15
2022-08-07T16:47:36.009Z,6.97
2022-08-07T16:53:15.021Z,5.70
2022-08-07T16:59:11.059Z,6.68
2022-08-07T17:04:29.573Z,10.43
2022-08-07T17:10:06.125Z,14.60
2022-08-07T17:15:16.023Z,6.60
2022-08-07T17:20:37.529Z,9.63
2022-08-07T17:26:24.280Z,6.63
2022-08-07T17:32:02.885Z,6.33
2022-08-07T17:38:09.460Z,10.90
2022-08-07T17:43:15.061Z,10.25
2022-08-07T17:48:31.028Z,7.60
2022-08-07T17:54:06.297Z,8.32
2022-08-07T17:59:24.640Z,9.18
2022-08-07T18:04:52.421Z,11.93
2022-08-07T18:10:05.856Z,8.07
2022-08-07T18:15:17.220Z,8.85
2022-08-07T18:21:08.512Z,11.63
2022-08-07T18:26:03.937Z,8.93
2022-08-07T18:31:10.307Z,8.73
2022-08-07T18:36:17.383Z,9.98
2022-08-07T18:42:00.226Z,8.03
2022-08-07T18:47:20.923Z,7.20
2022-08-07T18:52:55.008Z,10.88
2022-08-07T18:58:51.923Z,7.37
2022-08-07T19:04:13.211Z,11.75
2022-08-07T19:09:55.767Z,10.57
2022-08-07T19:16:03.229Z,12.97
2022-08-07T19:21:44.310Z,9.03
2022-08-07T19:27:08.922Z,9.52
2022-08-07T19:32:26.048Z,6.90
2022-08-07T19:37:55.645Z,7.90
2022-08-07T19:42:51.908Z,10.82
2022-08-07T19:47:57.200Z,6.75
2022-08-07T19:53:00.938Z,10.33
2022-08-07T19:58:14.363Z,7.40
2022-08-07T20:03:34.467Z,9.73
2022-08-07T20:08:42.233Z,8.67
2022-08-07T20:13:55.203Z,13.87
2022-08-07T20:18:59.515Z,9.25
2022-08-07T20:24:07.999Z,8.43
2022-08-07T20:29:46.969Z,5.50
2022-08-07T20:34:50.801Z,9.82
2022-08-07T20:40:04.156Z,7.55
2022-08-07T20:45:33.070Z,11.07
2022-08-07T20:50:31.815Z,8.27
2022-08-07T20:55:37.216Z,10.35
2022-08-07T21:00:46.214Z,9.47
2022-08-07T21:05:56.192Z,16.20
2022-08-07T21:11:02.639Z,81.32
2022-08-07T21:16:06.349Z,116.60
2022-08-07T21:21:10.194Z,131.20
2022-08-07T21:26:47.560Z,107.38
2022-08-07T21:32:47.763Z,78.32
2022-08-07T21:38:03.983Z,60.93
2022-08-07T21:43:10.817Z,75.35
2022-08-07T21:48:43.855Z,89.88
2022-08-07T21:53:53.985Z,52.47
2022-08-07T21:59:05.664Z,19.43
2022-08-07T22:04:13.153Z,18.30
2022-08-07T22:09:25.799Z,8.90
2022-08-07T22:14:36.511Z,14.30
2022-08-07T22:20:01.042Z,9.32
2022-08-07T22:25:19.813Z,7.07
2022-08-07T22:30:41.448Z,9.40
2022-08-07T22:35:46.225Z,10.35
2022-08-07T22:41:00.120Z,9.13
2022-08-07T22:47:02.971Z,8.37
2022-08-07T22:52:13.568Z,7.50
2022-08-07T22:57:37.364Z,7.10
2022-08-07T23:03:01.599Z,14.15
2022-08-07T23:08:30.798Z,12.17
2022-08-07T23:13:49.191Z,10.35
2022-08-07T23:19:47.507Z,9.50
2022-08-07T23:25:22.180Z,10.67
2022-08-07T23:31:05.681Z,12.10
2022-08-07T23:36:32.735Z,11.98
2022-08-07T23:41:47.678Z,11.90
2022-08-07T23:47:47.888Z,10.23
2022-08-07T23:53:21.253Z,10.15
2022-08-07T23:58:37.357Z,12.93
